sensor_id;sensor_type;location;lat;lon;timestamp;pressure;altitude;pressure_sealevel;temperature;humidity
22649;BME280;11491;41.942;24.220;2024-01-30T00:00:00;91426.38;;;-1.83;72.13
22649;BME280;11491;41.942;24.220;2024-01-30T00:02:30;91433.66;;;-1.85;71.86
22649;BME280;11491;41.942;24.220;2024-01-30T00:04:57;91428.91;;;-1.88;72.50
22649;BME280;11491;41.942;24.220;2024-01-30T00:07:25;91420.47;;;-1.90;72.60
22649;BME280;11491;41.942;24.220;2024-01-30T00:09:51;91421.38;;;-1.97;72.59
22649;BME280;11491;41.942;24.220;2024-01-30T00:12:18;91421.03;;;-1.88;72.45
22649;BME280;11491;41.942;24.220;2024-01-30T00:14:45;91428.91;;;-1.88;73.26
22649;BME280;11491;41.942;24.220;2024-01-30T00:17:12;91422.97;;;-1.96;73.76
22649;BME280;11491;41.942;24.220;2024-01-30T00:19:39;91424.09;;;-1.91;73.73
22649;BME280;11491;41.942;24.220;2024-01-30T00:22:05;91419.41;;;-1.89;73.28
22649;BME280;11491;41.942;24.220;2024-01-30T00:24:34;91420.00;;;-1.87;73.21
22649;BME280;11491;41.942;24.220;2024-01-30T00:27:01;91424.97;;;-1.74;73.35
22649;BME280;11491;41.942;24.220;2024-01-30T00:29:27;91433.78;;;-1.80;72.92
22649;BME280;11491;41.942;24.220;2024-01-30T00:31:56;91435.00;;;-1.71;71.64
22649;BME280;11491;41.942;24.220;2024-01-30T00:34:23;91435.47;;;-1.74;71.68
22649;BME280;11491;41.942;24.220;2024-01-30T00:36:49;91422.25;;;-1.79;71.88
22649;BME280;11491;41.942;24.220;2024-01-30T00:39:16;91433.78;;;-1.80;71.84
22649;BME280;11491;41.942;24.220;2024-01-30T00:41:46;91436.66;;;-1.93;73.02
22649;BME280;11491;41.942;24.220;2024-01-30T00:44:13;91433.22;;;-1.94;73.65
22649;BME280;11491;41.942;24.220;2024-01-30T00:46:39;91430.59;;;-1.94;73.75
22649;BME280;11491;41.942;24.220;2024-01-30T00:49:06;91433.66;;;-1.85;74.08
22649;BME280;11491;41.942;24.220;2024-01-30T00:51:33;91436.50;;;-1.75;72.72
22649;BME280;11491;41.942;24.220;2024-01-30T00:54:00;91442.22;;;-1.78;72.11
22649;BME280;11491;41.942;24.220;2024-01-30T00:56:27;91444.38;;;-1.75;71.99
22649;BME280;11491;41.942;24.220;2024-01-30T00:58:55;91438.78;;;-1.79;71.90
22649;BME280;11491;41.942;24.220;2024-01-30T01:01:22;91434.91;;;-1.76;71.46
22649;BME280;11491;41.942;24.220;2024-01-30T01:03:49;91433.31;;;-1.77;71.71
22649;BME280;11491;41.942;24.220;2024-01-30T01:06:16;91433.56;;;-1.79;71.00
22649;BME280;11491;41.942;24.220;2024-01-30T01:08:42;91421.56;;;-1.86;71.32
22649;BME280;11491;41.942;24.220;2024-01-30T01:11:09;91423.28;;;-1.80;71.04
22649;BME280;11491;41.942;24.220;2024-01-30T01:13:36;91423.38;;;-1.75;70.69
22649;BME280;11491;41.942;24.220;2024-01-30T01:16:04;91414.69;;;-1.64;70.48
22649;BME280;11491;41.942;24.220;2024-01-30T01:18:31;91419.59;;;-1.67;70.34
22649;BME280;11491;41.942;24.220;2024-01-30T01:20:58;91423.31;;;-1.92;70.73
22649;BME280;11491;41.942;24.220;2024-01-30T01:23:25;91411.13;;;-2.10;71.40
22649;BME280;11491;41.942;24.220;2024-01-30T01:25:52;91421.78;;;-2.28;72.45
22649;BME280;11491;41.942;24.220;2024-01-30T01:28:19;91413.00;;;-2.46;72.86
22649;BME280;11491;41.942;24.220;2024-01-30T01:30:46;91414.72;;;-2.63;73.53
22649;BME280;11491;41.942;24.220;2024-01-30T01:33:14;91416.31;;;-2.50;73.80
22649;BME280;11491;41.942;24.220;2024-01-30T01:35:41;91422.22;;;-2.31;73.65
22649;BME280;11491;41.942;24.220;2024-01-30T01:38:07;91409.69;;;-2.29;73.85
22649;BME280;11491;41.942;24.220;2024-01-30T01:40:34;91407.47;;;-2.09;73.20
22649;BME280;11491;41.942;24.220;2024-01-30T01:43:03;91410.56;;;-2.12;72.18
22649;BME280;11491;41.942;24.220;2024-01-30T01:45:30;91414.34;;;-2.08;73.27
22649;BME280;11491;41.942;24.220;2024-01-30T01:47:57;91407.94;;;-2.12;73.60
22649;BME280;11491;41.942;24.220;2024-01-30T01:50:25;91408.25;;;-1.97;72.31
22649;BME280;11491;41.942;24.220;2024-01-30T01:52:53;91398.97;;;-2.16;72.96
22649;BME280;11491;41.942;24.220;2024-01-30T01:55:22;91398.34;;;-1.95;71.81
22649;BME280;11491;41.942;24.220;2024-01-30T01:57:51;91406.31;;;-1.89;71.37
22649;BME280;11491;41.942;24.220;2024-01-30T02:00:19;91410.88;;;-1.97;72.45
22649;BME280;11491;41.942;24.220;2024-01-30T02:02:46;91405.09;;;-1.99;73.03
22649;BME280;11491;41.942;24.220;2024-01-30T02:05:14;91407.16;;;-2.01;73.22
22649;BME280;11491;41.942;24.220;2024-01-30T02:07:42;91404.16;;;-1.92;72.79
22649;BME280;11491;41.942;24.220;2024-01-30T02:10:10;91404.53;;;-2.01;72.87
22649;BME280;11491;41.942;24.220;2024-01-30T02:12:36;91403.59;;;-1.95;73.28
22649;BME280;11491;41.942;24.220;2024-01-30T02:15:04;91409.63;;;-1.94;73.11
22649;BME280;11491;41.942;24.220;2024-01-30T02:17:32;91409.19;;;-1.91;73.26
22649;BME280;11491;41.942;24.220;2024-01-30T02:19:59;91395.69;;;-1.83;73.47
22649;BME280;11491;41.942;24.220;2024-01-30T02:22:28;91395.47;;;-1.81;73.45
22649;BME280;11491;41.942;24.220;2024-01-30T02:24:55;91397.47;;;-1.71;72.64
22649;BME280;11491;41.942;24.220;2024-01-30T02:27:22;91402.59;;;-1.65;71.69
22649;BME280;11491;41.942;24.220;2024-01-30T02:29:49;91389.56;;;-1.60;71.80
22649;BME280;11491;41.942;24.220;2024-01-30T02:32:16;91393.81;;;-1.59;71.74
22649;BME280;11491;41.942;24.220;2024-01-30T02:34:42;91390.84;;;-1.62;71.68
22649;BME280;11491;41.942;24.220;2024-01-30T02:37:09;91392.09;;;-1.65;72.14
22649;BME280;11491;41.942;24.220;2024-01-30T02:39:37;91393.91;;;-1.54;72.34
22649;BME280;11491;41.942;24.220;2024-01-30T02:42:05;91395.16;;;-1.56;72.04
22649;BME280;11491;41.942;24.220;2024-01-30T02:44:31;91395.75;;;-1.66;72.12
22649;BME280;11491;41.942;24.220;2024-01-30T02:46:58;91389.56;;;-1.60;71.91
22649;BME280;11491;41.942;24.220;2024-01-30T02:49:25;91382.19;;;-1.63;71.88
22649;BME280;11491;41.942;24.220;2024-01-30T02:51:53;91387.66;;;-1.64;72.27
22649;BME280;11491;41.942;24.220;2024-01-30T02:54:20;91401.50;;;-1.69;72.27
22649;BME280;11491;41.942;24.220;2024-01-30T02:56:48;91398.88;;;-1.69;72.16
22649;BME280;11491;41.942;24.220;2024-01-30T02:59:14;91388.47;;;-1.64;71.34
22649;BME280;11491;41.942;24.220;2024-01-30T03:01:44;91392.44;;;-1.61;71.45
22649;BME280;11491;41.942;24.220;2024-01-30T03:04:11;91394.34;;;-1.57;70.43
22649;BME280;11491;41.942;24.220;2024-01-30T03:06:38;91388.47;;;-1.64;69.54
22649;BME280;11491;41.942;24.220;2024-01-30T03:09:05;91397.25;;;-1.70;69.20
22649;BME280;11491;41.942;24.220;2024-01-30T03:11:32;91389.38;;;-1.99;69.72
22649;BME280;11491;41.942;24.220;2024-01-30T03:14:00;91384.47;;;-2.07;69.75
22649;BME280;11491;41.942;24.220;2024-01-30T03:16:26;91376.16;;;-2.15;69.74
22649;BME280;11491;41.942;24.220;2024-01-30T03:18:53;91388.13;;;-2.08;70.40
22649;BME280;11491;41.942;24.220;2024-01-30T03:21:20;91388.78;;;-2.01;70.85
22649;BME280;11491;41.942;24.220;2024-01-30T03:23:47;91384.13;;;-1.99;71.12
22649;BME280;11491;41.942;24.220;2024-01-30T03:26:13;91385.47;;;-1.96;71.50
22649;BME280;11491;41.942;24.220;2024-01-30T03:28:40;91388.91;;;-1.96;71.47
22649;BME280;11491;41.942;24.220;2024-01-30T03:31:08;91387.19;;;-2.02;71.70
22649;BME280;11491;41.942;24.220;2024-01-30T03:33:36;91371.44;;;-2.02;71.86
22649;BME280;11491;41.942;24.220;2024-01-30T03:36:04;91376.91;;;-1.91;71.18
22649;BME280;11491;41.942;24.220;2024-01-30T03:38:31;91382.41;;;-2.05;70.21
22649;BME280;11491;41.942;24.220;2024-01-30T03:40:59;91377.88;;;-2.21;70.84
22649;BME280;11491;41.942;24.220;2024-01-30T03:43:25;91376.41;;;-2.29;71.69
22649;BME280;11491;41.942;24.220;2024-01-30T03:45:52;91376.19;;;-2.27;70.83
22649;BME280;11491;41.942;24.220;2024-01-30T03:48:21;91378.59;;;-2.38;72.16
22649;BME280;11491;41.942;24.220;2024-01-30T03:50:47;91377.91;;;-2.45;72.06
22649;BME280;11491;41.942;24.220;2024-01-30T03:53:14;91380.63;;;-2.51;72.04
22649;BME280;11491;41.942;24.220;2024-01-30T03:55:41;91388.97;;;-2.54;72.51
22649;BME280;11491;41.942;24.220;2024-01-30T03:58:08;91390.78;;;-2.67;73.05
22649;BME280;11491;41.942;24.220;2024-01-30T04:00:34;91390.88;;;-2.73;73.42
22649;BME280;11491;41.942;24.220;2024-01-30T04:03:01;91386.56;;;-2.79;73.88
22649;BME280;11491;41.942;24.220;2024-01-30T04:05:29;91385.09;;;-2.75;73.46
22649;BME280;11491;41.942;24.220;2024-01-30T04:07:56;91372.91;;;-2.82;73.58
22649;BME280;11491;41.942;24.220;2024-01-30T04:10:23;91385.78;;;-2.80;74.11
22649;BME280;11491;41.942;24.220;2024-01-30T04:12:51;91382.91;;;-2.78;74.36
22649;BME280;11491;41.942;24.220;2024-01-30T04:15:19;91393.16;;;-2.89;74.49
22649;BME280;11491;41.942;24.220;2024-01-30T04:17:46;91390.78;;;-2.90;74.96
22649;BME280;11491;41.942;24.220;2024-01-30T04:20:14;91396.91;;;-2.96;75.27
22649;BME280;11491;41.942;24.220;2024-01-30T04:22:43;91397.38;;;-2.88;75.16
22649;BME280;11491;41.942;24.220;2024-01-30T04:25:10;91388.50;;;-2.87;74.60
22649;BME280;11491;41.942;24.220;2024-01-30T04:27:37;91402.50;;;-2.69;73.70
22649;BME280;11491;41.942;24.220;2024-01-30T04:30:05;91397.72;;;-2.72;73.78
22649;BME280;11491;41.942;24.220;2024-01-30T04:32:32;91397.50;;;-2.83;74.16
22649;BME280;11491;41.942;24.220;2024-01-30T04:34:59;91394.19;;;-2.90;74.59
22649;BME280;11491;41.942;24.220;2024-01-30T04:37:26;91401.13;;;-2.84;74.86
22649;BME280;11491;41.942;24.220;2024-01-30T04:39:54;91399.44;;;-2.78;74.10
22649;BME280;11491;41.942;24.220;2024-01-30T04:42:21;91389.28;;;-2.98;75.12
22649;BME280;11491;41.942;24.220;2024-01-30T04:44:47;91384.94;;;-3.04;74.74
22649;BME280;11491;41.942;24.220;2024-01-30T04:47:14;91396.56;;;-3.00;75.41
22649;BME280;11491;41.942;24.220;2024-01-30T04:49:41;91400.09;;;-2.94;75.28
22649;BME280;11491;41.942;24.220;2024-01-30T04:52:08;91400.88;;;-2.94;75.21
22649;BME280;11491;41.942;24.220;2024-01-30T04:54:35;91409.31;;;-2.92;75.31
22649;BME280;11491;41.942;24.220;2024-01-30T04:57:04;91412.28;;;-2.88;75.86
22649;BME280;11491;41.942;24.220;2024-01-30T04:59:35;91415.72;;;-2.88;75.80
22649;BME280;11491;41.942;24.220;2024-01-30T05:02:01;91421.19;;;-2.77;75.47
22649;BME280;11491;41.942;24.220;2024-01-30T05:04:28;91418.69;;;-2.72;75.34
22649;BME280;11491;41.942;24.220;2024-01-30T05:06:55;91420.25;;;-2.71;75.05
22649;BME280;11491;41.942;24.220;2024-01-30T05:09:22;91418.44;;;-2.59;74.46
22649;BME280;11491;41.942;24.220;2024-01-30T05:11:48;91429.84;;;-2.65;74.58
22649;BME280;11491;41.942;24.220;2024-01-30T05:14:16;91426.44;;;-2.54;74.69
22649;BME280;11491;41.942;24.220;2024-01-30T05:16:43;91413.22;;;-2.59;74.38
22649;BME280;11491;41.942;24.220;2024-01-30T05:19:12;91433.38;;;-2.60;74.16
22649;BME280;11491;41.942;24.220;2024-01-30T05:21:39;91426.66;;;-2.55;74.56
22649;BME280;11491;41.942;24.220;2024-01-30T05:24:06;91429.94;;;-2.84;74.64
22649;BME280;11491;41.942;24.220;2024-01-30T05:26:35;91423.31;;;-2.86;74.62
22649;BME280;11491;41.942;24.220;2024-01-30T05:29:02;91425.47;;;-2.95;74.82
22649;BME280;11491;41.942;24.220;2024-01-30T05:31:30;91432.31;;;-2.94;74.94
22649;BME280;11491;41.942;24.220;2024-01-30T05:33:56;91422.03;;;-3.07;75.11
22649;BME280;11491;41.942;24.220;2024-01-30T05:36:23;91421.53;;;-3.28;75.66
22649;BME280;11491;41.942;24.220;2024-01-30T05:38:50;91434.75;;;-3.22;75.94
22649;BME280;11491;41.942;24.220;2024-01-30T05:41:17;91430.22;;;-3.15;76.21
22649;BME280;11491;41.942;24.220;2024-01-30T05:43:44;91431.81;;;-3.14;76.01
22649;BME280;11491;41.942;24.220;2024-01-30T05:46:10;91427.84;;;-3.05;75.83
22649;BME280;11491;41.942;24.220;2024-01-30T05:48:38;91437.75;;;-3.07;75.65
22649;BME280;11491;41.942;24.220;2024-01-30T05:51:07;91432.59;;;-3.14;75.80
22649;BME280;11491;41.942;24.220;2024-01-30T05:53:34;91436.25;;;-3.15;75.71
22649;BME280;11491;41.942;24.220;2024-01-30T05:56:01;91435.88;;;-3.18;76.43
22649;BME280;11491;41.942;24.220;2024-01-30T05:58:28;91436.59;;;-3.11;76.74
22649;BME280;11491;41.942;24.220;2024-01-30T06:00:56;91404.94;;;-3.21;76.06
22649;BME280;11491;41.942;24.220;2024-01-30T06:03:23;91434.47;;;-2.91;75.74
22649;BME280;11491;41.942;24.220;2024-01-30T06:05:51;91427.53;;;-2.97;75.15
22649;BME280;11491;41.942;24.220;2024-01-30T06:08:18;91429.81;;;-2.89;75.35
22649;BME280;11491;41.942;24.220;2024-01-30T06:10:44;91430.84;;;-2.90;75.24
22649;BME280;11491;41.942;24.220;2024-01-30T06:13:13;91432.13;;;-2.80;74.93
22649;BME280;11491;41.942;24.220;2024-01-30T06:15:39;91430.31;;;-2.68;74.17
22649;BME280;11491;41.942;24.220;2024-01-30T06:18:06;91440.31;;;-2.65;74.10
22649;BME280;11491;41.942;24.220;2024-01-30T06:20:33;91440.44;;;-2.60;73.58
22649;BME280;11491;41.942;24.220;2024-01-30T06:23:02;91434.84;;;-2.52;73.46
22649;BME280;11491;41.942;24.220;2024-01-30T06:25:29;91438.06;;;-2.50;73.83
22649;BME280;11491;41.942;24.220;2024-01-30T06:27:55;91418.44;;;-2.59;73.11
22649;BME280;11491;41.942;24.220;2024-01-30T06:30:22;91434.63;;;-2.39;72.63
22649;BME280;11491;41.942;24.220;2024-01-30T06:32:49;91454.22;;;-2.29;72.40
22649;BME280;11491;41.942;24.220;2024-01-30T06:35:16;91447.50;;;-2.37;72.24
22649;BME280;11491;41.942;24.220;2024-01-30T06:37:43;91452.66;;;-2.30;72.60
22649;BME280;11491;41.942;24.220;2024-01-30T06:40:12;91439.66;;;-2.25;72.46
22649;BME280;11491;41.942;24.220;2024-01-30T06:42:38;91444.66;;;-2.12;71.71
22649;BME280;11491;41.942;24.220;2024-01-30T06:45:06;91447.59;;;-1.97;71.91
22649;BME280;11491;41.942;24.220;2024-01-30T06:47:33;91446.00;;;-1.98;71.66
22649;BME280;11491;41.942;24.220;2024-01-30T06:50:00;91448.72;;;-1.92;71.11
22649;BME280;11491;41.942;24.220;2024-01-30T06:52:30;91453.38;;;-1.83;70.92
22649;BME280;11491;41.942;24.220;2024-01-30T06:54:57;91451.81;;;-1.84;70.51
22649;BME280;11491;41.942;24.220;2024-01-30T06:57:25;91460.47;;;-1.83;70.93
22649;BME280;11491;41.942;24.220;2024-01-30T06:59:56;91469.00;;;-1.76;69.88
22649;BME280;11491;41.942;24.220;2024-01-30T07:02:23;91465.34;;;-1.75;69.68
22649;BME280;11491;41.942;24.220;2024-01-30T07:04:50;91461.25;;;-1.71;69.50
22649;BME280;11491;41.942;24.220;2024-01-30T07:07:17;91456.44;;;-1.74;69.54
22649;BME280;11491;41.942;24.220;2024-01-30T07:09:43;91466.59;;;-1.78;68.39
22649;BME280;11491;41.942;24.220;2024-01-30T07:12:10;91460.09;;;-1.75;68.25
22649;BME280;11491;41.942;24.220;2024-01-30T07:14:38;91463.31;;;-1.97;68.73
22649;BME280;11491;41.942;24.220;2024-01-30T07:17:05;91463.19;;;-1.90;68.95
22649;BME280;11491;41.942;24.220;2024-01-30T07:19:32;91463.31;;;-1.97;69.21
22649;BME280;11491;41.942;24.220;2024-01-30T07:22:00;91468.13;;;-1.93;68.78
22649;BME280;11491;41.942;24.220;2024-01-30T07:24:27;91465.34;;;-1.87;68.66
22649;BME280;11491;41.942;24.220;2024-01-30T07:26:53;91468.34;;;-2.07;68.67
22649;BME280;11491;41.942;24.220;2024-01-30T07:29:20;91466.88;;;-2.14;68.35
22649;BME280;11491;41.942;24.220;2024-01-30T07:31:49;91468.69;;;-2.15;68.47
22649;BME280;11491;41.942;24.220;2024-01-30T07:34:15;91461.41;;;-2.13;67.91
22649;BME280;11491;41.942;24.220;2024-01-30T07:36:42;91473.03;;;-2.21;68.85
22649;BME280;11491;41.942;24.220;2024-01-30T07:39:09;91467.91;;;-2.27;69.72
22649;BME280;11491;41.942;24.220;2024-01-30T07:41:36;91477.59;;;-2.16;69.03
22649;BME280;11491;41.942;24.220;2024-01-30T07:44:03;91472.69;;;-2.24;68.62
22649;BME280;11491;41.942;24.220;2024-01-30T07:46:30;91469.75;;;-2.16;69.38
22649;BME280;11491;41.942;24.220;2024-01-30T07:48:58;91457.41;;;-2.27;69.32
22649;BME280;11491;41.942;24.220;2024-01-30T07:51:25;91475.41;;;-2.19;69.13
22649;BME280;11491;41.942;24.220;2024-01-30T07:53:53;91479.97;;;-2.14;68.93
22649;BME280;11491;41.942;24.220;2024-01-30T07:56:20;91445.78;;;-2.31;69.76
22649;BME280;11491;41.942;24.220;2024-01-30T07:58:47;91484.88;;;-2.06;69.29
22649;BME280;11491;41.942;24.220;2024-01-30T08:01:14;91468.34;;;-2.07;68.55
22649;BME280;11491;41.942;24.220;2024-01-30T08:03:41;91478.72;;;-2.12;68.37
22649;BME280;11491;41.942;24.220;2024-01-30T08:06:09;91467.66;;;-2.14;68.19
22649;BME280;11491;41.942;24.220;2024-01-30T08:08:36;91466.75;;;-2.08;68.31
22649;BME280;11491;41.942;24.220;2024-01-30T08:11:03;91468.13;;;-2.17;68.64
22649;BME280;11491;41.942;24.220;2024-01-30T08:13:30;91474.50;;;-2.13;69.11
22649;BME280;11491;41.942;24.220;2024-01-30T08:15:57;91473.81;;;-2.20;69.44
22649;BME280;11491;41.942;24.220;2024-01-30T08:18:23;91473.38;;;-2.17;69.22
22649;BME280;11491;41.942;24.220;2024-01-30T08:20:50;91478.38;;;-2.04;68.63
22649;BME280;11491;41.942;24.220;2024-01-30T08:23:18;91481.44;;;-2.07;68.35
22649;BME280;11491;41.942;24.220;2024-01-30T08:25:45;91482.50;;;-2.08;68.49
22649;BME280;11491;41.942;24.220;2024-01-30T08:28:11;91478.97;;;-2.13;68.79
22649;BME280;11491;41.942;24.220;2024-01-30T08:30:38;91470.63;;;-1.99;67.75
22649;BME280;11491;41.942;24.220;2024-01-30T08:33:05;91466.75;;;-2.08;67.77
22649;BME280;11491;41.942;24.220;2024-01-30T08:35:32;91464.94;;;-1.96;67.08
22649;BME280;11491;41.942;24.220;2024-01-30T08:37:59;91476.09;;;-1.88;67.10
22649;BME280;11491;41.942;24.220;2024-01-30T08:40:27;91475.84;;;-1.75;65.67
22649;BME280;11491;41.942;24.220;2024-01-30T08:42:55;91467.38;;;-1.65;65.87
22649;BME280;11491;41.942;24.220;2024-01-30T08:45:21;91476.91;;;-1.47;64.97
22649;BME280;11491;41.942;24.220;2024-01-30T08:47:48;91468.38;;;-1.55;64.09
22649;BME280;11491;41.942;24.220;2024-01-30T08:50:15;91473.59;;;-1.43;65.75
22649;BME280;11491;41.942;24.220;2024-01-30T08:52:42;91469.53;;;-1.22;65.60
22649;BME280;11491;41.942;24.220;2024-01-30T08:55:09;91470.94;;;-1.02;65.23
22649;BME280;11491;41.942;24.220;2024-01-30T08:57:37;91473.28;;;-0.89;63.81
22649;BME280;11491;41.942;24.220;2024-01-30T09:00:05;91476.66;;;-0.77;63.79
22649;BME280;11491;41.942;24.220;2024-01-30T09:02:34;91464.88;;;-0.74;63.54
22649;BME280;11491;41.942;24.220;2024-01-30T09:05:01;91466.00;;;-0.53;63.33
22649;BME280;11491;41.942;24.220;2024-01-30T09:07:28;91461.59;;;-0.48;62.05
22649;BME280;11491;41.942;24.220;2024-01-30T09:09:54;91456.91;;;-0.29;61.87
22649;BME280;11491;41.942;24.220;2024-01-30T09:12:21;91461.84;;;-0.15;60.94
22649;BME280;11491;41.942;24.220;2024-01-30T09:14:49;91460.59;;;0.09;60.35
22649;BME280;11491;41.942;24.220;2024-01-30T09:17:16;91460.97;;;0.35;59.94
22649;BME280;11491;41.942;24.220;2024-01-30T09:19:43;91453.97;;;0.24;59.30
22649;BME280;11491;41.942;24.220;2024-01-30T09:22:10;91456.78;;;0.39;57.81
22649;BME280;11491;41.942;24.220;2024-01-30T09:24:36;91449.56;;;0.51;58.24
22649;BME280;11491;41.942;24.220;2024-01-30T09:27:04;91452.88;;;0.63;56.51
22649;BME280;11491;41.942;24.220;2024-01-30T09:29:30;91455.88;;;0.72;57.56
22649;BME280;11491;41.942;24.220;2024-01-30T09:32:00;91449.63;;;0.78;56.52
22649;BME280;11491;41.942;24.220;2024-01-30T09:34:27;91456.78;;;0.83;56.96
22649;BME280;11491;41.942;24.220;2024-01-30T09:36:54;91442.19;;;0.97;57.09
22649;BME280;11491;41.942;24.220;2024-01-30T09:39:20;91446.72;;;1.02;56.74
22649;BME280;11491;41.942;24.220;2024-01-30T09:41:49;91444.97;;;1.13;56.20
22649;BME280;11491;41.942;24.220;2024-01-30T09:44:16;91443.13;;;1.13;56.14
22649;BME280;11491;41.942;24.220;2024-01-30T09:46:43;91444.44;;;1.11;56.43
22649;BME280;11491;41.942;24.220;2024-01-30T09:49:15;91431.25;;;1.11;56.05
22649;BME280;11491;41.942;24.220;2024-01-30T09:51:44;91430.25;;;1.17;54.90
22649;BME280;11491;41.942;24.220;2024-01-30T09:54:13;91435.03;;;1.20;54.54
22649;BME280;11491;41.942;24.220;2024-01-30T09:56:40;91426.50;;;1.07;54.68
22649;BME280;11491;41.942;24.220;2024-01-30T09:59:07;91425.44;;;1.08;55.07
22649;BME280;11491;41.942;24.220;2024-01-30T10:01:34;91429.50;;;0.94;52.92
22649;BME280;11491;41.942;24.220;2024-01-30T10:04:01;91414.72;;;0.66;54.68
22649;BME280;11491;41.942;24.220;2024-01-30T10:06:29;91421.41;;;0.74;56.56
22649;BME280;11491;41.942;24.220;2024-01-30T10:08:56;91414.16;;;0.86;56.32
22649;BME280;11491;41.942;24.220;2024-01-30T10:11:23;91414.75;;;0.93;55.39
22649;BME280;11491;41.942;24.220;2024-01-30T10:13:50;91412.84;;;1.16;55.19
22649;BME280;11491;41.942;24.220;2024-01-30T10:16:16;91406.38;;;1.28;55.26
22649;BME280;11491;41.942;24.220;2024-01-30T10:18:43;91404.97;;;1.48;54.01
22649;BME280;11491;41.942;24.220;2024-01-30T10:21:10;91405.97;;;1.74;53.64
22649;BME280;11491;41.942;24.220;2024-01-30T10:23:38;91401.25;;;1.81;53.03
22649;BME280;11491;41.942;24.220;2024-01-30T10:26:05;91399.19;;;1.88;52.66
22649;BME280;11491;41.942;24.220;2024-01-30T10:28:33;91412.41;;;1.93;51.37
22649;BME280;11491;41.942;24.220;2024-01-30T10:31:00;91403.22;;;2.01;51.44
22649;BME280;11491;41.942;24.220;2024-01-30T10:33:29;91408.28;;;2.08;52.10
22649;BME280;11491;41.942;24.220;2024-01-30T10:35:59;91399.53;;;2.02;51.17
22649;BME280;11491;41.942;24.220;2024-01-30T10:38:28;91403.28;;;2.11;51.83
22649;BME280;11491;41.942;24.220;2024-01-30T10:40:58;91393.41;;;1.91;51.40
22649;BME280;11491;41.942;24.220;2024-01-30T10:43:30;91397.03;;;1.80;52.00
22649;BME280;11491;41.942;24.220;2024-01-30T10:46:04;91406.44;;;1.71;52.86
22649;BME280;11491;41.942;24.220;2024-01-30T10:48:36;91400.94;;;1.72;52.35
22649;BME280;11491;41.942;24.220;2024-01-30T10:51:08;91395.50;;;1.89;52.07
22649;BME280;11491;41.942;24.220;2024-01-30T10:53:36;91390.75;;;1.86;51.04
22649;BME280;11491;41.942;24.220;2024-01-30T10:56:05;91395.63;;;1.35;51.39
22649;BME280;11491;41.942;24.220;2024-01-30T10:58:33;91388.19;;;1.27;54.19
22649;BME280;11491;41.942;24.220;2024-01-30T11:01:00;91387.84;;;1.50;53.20
22649;BME280;11491;41.942;24.220;2024-01-30T11:03:27;91388.34;;;1.47;52.37
22649;BME280;11491;41.942;24.220;2024-01-30T11:05:59;91383.09;;;1.47;52.67
22649;BME280;11491;41.942;24.220;2024-01-30T11:08:27;91379.72;;;1.57;53.38
22649;BME280;11491;41.942;24.220;2024-01-30T11:10:55;91380.56;;;1.63;52.22
22649;BME280;11491;41.942;24.220;2024-01-30T11:13:26;91385.81;;;1.63;52.21
22649;BME280;11491;41.942;24.220;2024-01-30T11:15:53;91382.03;;;1.48;52.98
22649;BME280;11491;41.942;24.220;2024-01-30T11:18:23;91384.72;;;1.59;51.54
22649;BME280;11491;41.942;24.220;2024-01-30T11:20:50;91385.09;;;1.35;53.13
22649;BME280;11491;41.942;24.220;2024-01-30T11:23:17;91380.69;;;1.14;51.51
22649;BME280;11491;41.942;24.220;2024-01-30T11:25:44;91377.28;;;0.86;54.06
22649;BME280;11491;41.942;24.220;2024-01-30T11:28:13;91381.44;;;0.82;54.79
22649;BME280;11491;41.942;24.220;2024-01-30T11:30:42;91381.13;;;0.51;54.16
22649;BME280;11491;41.942;24.220;2024-01-30T11:33:10;91383.88;;;0.39;55.39
22649;BME280;11491;41.942;24.220;2024-01-30T11:35:39;91386.09;;;0.04;57.11
22649;BME280;11491;41.942;24.220;2024-01-30T11:38:06;91390.91;;;-0.10;58.13
22649;BME280;11491;41.942;24.220;2024-01-30T11:40:36;91389.38;;;-0.06;58.32
22649;BME280;11491;41.942;24.220;2024-01-30T11:43:04;91386.34;;;-0.37;58.83
22649;BME280;11491;41.942;24.220;2024-01-30T11:45:32;91392.41;;;-0.53;58.89
22649;BME280;11491;41.942;24.220;2024-01-30T11:48:00;91381.81;;;-0.58;60.19
22649;BME280;11491;41.942;24.220;2024-01-30T11:50:29;91381.25;;;-0.60;59.28
22649;BME280;11491;41.942;24.220;2024-01-30T11:52:56;91385.41;;;-0.81;59.88
22649;BME280;11491;41.942;24.220;2024-01-30T11:55:23;91392.09;;;-0.74;60.46
22649;BME280;11491;41.942;24.220;2024-01-30T11:57:50;91383.81;;;-0.82;60.70
22649;BME280;11491;41.942;24.220;2024-01-30T12:00:18;91382.94;;;-0.88;60.71
22649;BME280;11491;41.942;24.220;2024-01-30T12:02:49;91380.00;;;-0.75;60.78
22649;BME280;11491;41.942;24.220;2024-01-30T12:05:19;91372.03;;;-0.63;59.56
22649;BME280;11491;41.942;24.220;2024-01-30T12:07:46;91376.50;;;-0.63;59.97
22649;BME280;11491;41.942;24.220;2024-01-30T12:10:12;91369.66;;;-0.26;59.82
22649;BME280;11491;41.942;24.220;2024-01-30T12:12:41;91367.31;;;-0.05;58.90
22649;BME280;11491;41.942;24.220;2024-01-30T12:15:10;91371.03;;;-0.01;57.31
22649;BME280;11491;41.942;24.220;2024-01-30T12:17:36;91356.31;;;-0.02;57.37
22649;BME280;11491;41.942;24.220;2024-01-30T12:20:04;91355.22;;;0.38;57.62
22649;BME280;11491;41.942;24.220;2024-01-30T12:22:35;91346.75;;;0.36;56.14
22649;BME280;11491;41.942;24.220;2024-01-30T12:25:04;91350.84;;;0.49;55.68
22649;BME280;11491;41.942;24.220;2024-01-30T12:27:31;91347.28;;;0.87;55.85
22649;BME280;11491;41.942;24.220;2024-01-30T12:29:58;91349.19;;;1.29;53.97
22649;BME280;11491;41.942;24.220;2024-01-30T12:32:25;91343.50;;;1.42;53.27
22649;BME280;11491;41.942;24.220;2024-01-30T12:34:55;91337.91;;;1.01;52.73
22649;BME280;11491;41.942;24.220;2024-01-30T12:37:22;91344.69;;;0.92;53.67
22649;BME280;11491;41.942;24.220;2024-01-30T12:39:51;91340.31;;;0.76;53.47
22649;BME280;11491;41.942;24.220;2024-01-30T12:42:19;91327.09;;;0.71;54.49
22649;BME280;11491;41.942;24.220;2024-01-30T12:44:47;91332.56;;;0.91;52.80
22649;BME280;11491;41.942;24.220;2024-01-30T12:47:14;91328.63;;;1.26;53.10
22649;BME280;11491;41.942;24.220;2024-01-30T12:49:42;91329.13;;;1.60;51.42
22649;BME280;11491;41.942;24.220;2024-01-30T12:52:09;91323.63;;;1.24;50.89